createdAt,value
2022-10-02T00:02:24.667Z,2.25
2022-10-02T00:05:14.242Z,1.60
2022-10-02T00:07:46.622Z,2.08
2022-10-02T00:10:18.794Z,2.45
2022-10-02T00:15:20.396Z,2.25
2022-10-02T00:17:51.277Z,1.60
2022-10-02T00:20:21.854Z,1.98
2022-10-02T00:22:54.474Z,2.00
2022-10-02T00:25:30.174Z,2.13
2022-10-02T00:28:21.956Z,2.10
2022-10-02T00:31:03.498Z,2.47
2022-10-02T00:33:45.080Z,2.40
2022-10-02T00:36:30.856Z,2.03
2022-10-02T00:39:05.815Z,2.35
2022-10-02T00:41:59.339Z,1.67
2022-10-02T00:44:44.064Z,1.85
2022-10-02T00:47:22.366Z,1.88
2022-10-02T00:50:10.467Z,2.33
2022-10-02T00:52:51.169Z,1.50
2022-10-02T00:55:35.795Z,1.80
2022-10-02T00:58:22.738Z,1.65
2022-10-02T01:00:59.672Z,1.50
2022-10-02T01:03:53.351Z,1.23
2022-10-02T01:06:24.188Z,1.52
2022-10-02T01:08:52.077Z,1.50
2022-10-02T01:11:24.243Z,1.58
2022-10-02T01:16:18.198Z,1.50
2022-10-02T01:18:47.897Z,1.67
2022-10-02T01:21:37.031Z,1.52
2022-10-02T01:24:14.799Z,1.30
2022-10-02T01:26:41.190Z,1.27
2022-10-02T01:29:07.619Z,1.65
2022-10-02T01:31:38.252Z,1.10
2022-10-02T01:34:05.033Z,1.35
2022-10-02T01:36:31.525Z,1.20
2022-10-02T01:38:59.195Z,1.75
2022-10-02T01:41:25.779Z,1.67
2022-10-02T01:44:01.327Z,1.38
2022-10-02T01:46:37.428Z,1.50
2022-10-02T01:49:22.918Z,1.77
2022-10-02T01:52:08.126Z,1.58
2022-10-02T01:54:53.018Z,1.70
2022-10-02T01:57:31.583Z,1.95
2022-10-02T02:00:08.056Z,1.50
2022-10-02T02:02:41.315Z,1.98
2022-10-02T02:05:28.105Z,2.00
2022-10-02T02:08:07.971Z,2.65
2022-10-02T02:11:02.238Z,1.98
2022-10-02T02:13:35.049Z,1.92
2022-10-02T02:16:18.578Z,2.30
2022-10-02T02:19:09.029Z,2.35
2022-10-02T02:21:42.760Z,2.50
2022-10-02T02:24:15.740Z,2.95
2022-10-02T02:26:45.474Z,2.72
2022-10-02T02:29:16.912Z,3.33
2022-10-02T02:31:51.130Z,3.00
2022-10-02T02:34:23.015Z,2.70
2022-10-02T02:36:55.136Z,4.18
2022-10-02T02:42:21.673Z,2.30
2022-10-02T02:44:57.554Z,1.95
2022-10-02T02:47:29.114Z,2.47
2022-10-02T02:49:59.458Z,2.50
2022-10-02T02:52:36.020Z,2.78
2022-10-02T02:55:15.339Z,2.20
2022-10-02T02:57:45.884Z,2.28
2022-10-02T03:00:15.541Z,2.13
2022-10-02T03:02:45.130Z,2.58
2022-10-02T03:05:17.228Z,2.47
2022-10-02T03:10:31.148Z,1.92
2022-10-02T03:13:32.536Z,2.25
2022-10-02T03:19:18.781Z,2.17
2022-10-02T03:22:05.602Z,1.98
2022-10-02T03:24:42.746Z,2.35
2022-10-02T03:27:15.998Z,2.03
2022-10-02T03:29:53.071Z,1.98
2022-10-02T03:32:21.346Z,2.35
2022-10-02T03:34:48.597Z,2.58
2022-10-02T03:37:15.804Z,2.38
2022-10-02T03:39:45.774Z,2.00
2022-10-02T03:42:14.672Z,2.47
2022-10-02T03:44:41.152Z,2.33
2022-10-02T03:47:12.823Z,3.53
2022-10-02T03:50:09.276Z,2.00
2022-10-02T03:52:36.210Z,2.25
2022-10-02T03:55:05.978Z,2.15
2022-10-02T03:57:34.651Z,2.13
2022-10-02T04:00:13.006Z,2.05
2022-10-02T04:02:47.538Z,2.35
2022-10-02T04:05:25.911Z,2.38
2022-10-02T04:07:57.377Z,2.42
2022-10-02T04:10:33.090Z,2.00
2022-10-02T04:13:08.033Z,2.85
2022-10-02T04:16:02.698Z,2.50
2022-10-02T04:18:39.712Z,2.42
2022-10-02T04:21:47.553Z,2.67
2022-10-02T04:24:42.765Z,2.75
2022-10-02T04:27:33.474Z,4.00
2022-10-02T04:30:04.243Z,3.15
2022-10-02T04:32:32.205Z,2.70
2022-10-02T04:34:59.195Z,2.20
2022-10-02T04:37:40.548Z,3.72
2022-10-02T04:40:26.072Z,3.10
2022-10-02T04:43:19.049Z,2.58
2022-10-02T04:46:07.733Z,2.42
2022-10-02T04:49:09.281Z,2.15
2022-10-02T04:52:02.812Z,2.85
2022-10-02T04:54:52.324Z,2.17
2022-10-02T04:57:36.778Z,2.80
2022-10-02T05:00:25.318Z,2.78
2022-10-02T05:02:54.674Z,3.10
2022-10-02T05:05:46.015Z,2.22
2022-10-02T05:09:08.698Z,2.53
2022-10-02T05:11:56.260Z,1.88
2022-10-02T05:15:04.849Z,2.45
2022-10-02T05:17:56.790Z,2.20
2022-10-02T05:20:48.701Z,2.17
2022-10-02T05:23:34.841Z,3.17
2022-10-02T05:26:15.195Z,2.63
2022-10-02T05:29:19.278Z,3.00
2022-10-02T05:32:05.923Z,2.50
2022-10-02T05:34:51.077Z,2.25
2022-10-02T05:37:27.033Z,2.47
2022-10-02T05:40:10.894Z,2.03
2022-10-02T05:42:48.538Z,2.70
2022-10-02T05:45:21.527Z,2.63
2022-10-02T05:47:50.826Z,2.63
2022-10-02T05:50:26.659Z,2.33
2022-10-02T05:53:31.704Z,2.88
2022-10-02T05:56:16.359Z,2.35
2022-10-02T05:58:58.889Z,2.40
2022-10-02T06:01:31.958Z,2.95
2022-10-02T06:04:06.143Z,2.30
2022-10-02T06:06:41.550Z,2.92
2022-10-02T06:09:22.943Z,2.65
2022-10-02T06:11:54.604Z,3.00
2022-10-02T06:14:47.333Z,2.05
2022-10-02T06:17:28.241Z,2.97
2022-10-02T06:20:13.782Z,2.13
2022-10-02T06:22:59.697Z,2.53
2022-10-02T06:25:35.057Z,2.80
2022-10-02T06:28:26.593Z,2.30
2022-10-02T06:31:00.786Z,2.53
2022-10-02T06:33:31.059Z,2.17
2022-10-02T06:36:22.479Z,2.53
2022-10-02T06:38:51.929Z,1.98
2022-10-02T06:41:57.348Z,1.88
2022-10-02T06:44:41.795Z,2.50
2022-10-02T06:47:36.460Z,2.65
2022-10-02T06:50:21.382Z,2.60
2022-10-02T06:53:06.015Z,2.55
2022-10-02T06:55:35.329Z,2.53
2022-10-02T06:58:17.448Z,2.42
2022-10-02T07:00:55.583Z,2.13
2022-10-02T07:03:30.933Z,2.38
2022-10-02T07:06:09.440Z,2.38
2022-10-02T07:09:13.720Z,2.25
2022-10-02T07:12:04.101Z,2.20
2022-10-02T07:14:58.739Z,2.45
2022-10-02T07:17:40.832Z,2.85
2022-10-02T07:20:19.388Z,2.65
2022-10-02T07:22:55.105Z,3.35
2022-10-02T07:25:43.210Z,2.67
2022-10-02T07:28:18.808Z,3.05
2022-10-02T07:31:10.621Z,1.92
2022-10-02T07:33:52.036Z,2.17
2022-10-02T07:36:35.271Z,2.07
2022-10-02T07:39:17.018Z,2.22
2022-10-02T07:42:10.146Z,2.63
2022-10-02T07:44:46.348Z,2.70
2022-10-02T07:47:33.826Z,3.42
2022-10-02T07:50:12.195Z,3.10
2022-10-02T07:52:55.467Z,2.35
2022-10-02T07:55:23.743Z,3.25
2022-10-02T07:57:59.414Z,3.08
2022-10-02T08:00:28.274Z,2.30
2022-10-02T08:03:08.356Z,2.25
2022-10-02T08:05:46.892Z,2.17
2022-10-02T08:08:22.687Z,1.98
2022-10-02T08:10:55.951Z,1.40
2022-10-02T08:13:32.923Z,1.63
2022-10-02T08:16:00.751Z,1.30
2022-10-02T08:18:35.734Z,1.83
2022-10-02T08:21:08.528Z,1.63
2022-10-02T08:23:58.332Z,1.52
2022-10-02T08:26:35.941Z,1.70
2022-10-02T08:29:21.444Z,1.90
2022-10-02T08:31:52.018Z,2.50
2022-10-02T08:34:25.633Z,1.58
2022-10-02T08:37:06.959Z,1.85
2022-10-02T08:39:47.275Z,2.47
2022-10-02T08:42:32.442Z,3.22
2022-10-02T08:45:04.798Z,4.60
2022-10-02T08:48:06.362Z,3.10
2022-10-02T08:50:42.223Z,2.35
2022-10-02T08:53:30.184Z,2.80
2022-10-02T08:56:16.436Z,4.75
2022-10-02T08:58:45.560Z,7.07
2022-10-02T09:01:35.015Z,5.40
2022-10-02T09:04:10.539Z,3.53
2022-10-02T09:07:00.794Z,4.65
2022-10-02T09:09:59.162Z,10.45
2022-10-02T09:12:42.054Z,9.63
2022-10-02T09:15:18.041Z,9.82
2022-10-02T09:18:16.004Z,6.78
2022-10-02T09:21:11.706Z,6.85
2022-10-02T09:23:47.973Z,5.55
2022-10-02T09:26:56.392Z,2.08
2022-10-02T09:30:00.212Z,3.17
2022-10-02T09:32:53.944Z,3.20
2022-10-02T09:35:49.804Z,3.03
2022-10-02T09:38:29.492Z,7.25
2022-10-02T09:41:26.201Z,2.75
2022-10-02T09:44:18.460Z,2.45
2022-10-02T09:47:04.021Z,1.42
2022-10-02T09:49:57.347Z,1.25
2022-10-02T09:52:46.959Z,1.33
2022-10-02T09:55:36.666Z,1.58
2022-10-02T09:58:43.865Z,2.08
2022-10-02T10:01:27.844Z,2.47
2022-10-02T10:04:47.939Z,3.70
2022-10-02T10:07:55.850Z,2.55
2022-10-02T10:10:51.985Z,1.95
2022-10-02T10:13:49.140Z,2.92
2022-10-02T10:16:22.116Z,2.92
2022-10-02T10:19:02.923Z,2.72
2022-10-02T10:21:32.169Z,3.00
2022-10-02T10:24:06.263Z,4.72
2022-10-02T10:27:06.280Z,1.92
2022-10-02T10:29:54.301Z,3.30
2022-10-02T10:32:39.035Z,1.40
2022-10-02T10:35:28.367Z,1.80
2022-10-02T10:38:33.479Z,2.38
2022-10-02T10:41:37.506Z,2.47
2022-10-02T10:44:31.473Z,9.20
2022-10-02T10:47:03.929Z,14.98
2022-10-02T10:50:04.220Z,5.78
2022-10-02T10:52:42.438Z,3.03
2022-10-02T10:55:18.385Z,2.08
2022-10-02T10:58:03.299Z,3.05
2022-10-02T11:00:55.624Z,2.78
2022-10-02T11:06:26.302Z,2.15
2022-10-02T11:09:04.686Z,2.00
2022-10-02T11:12:09.793Z,1.52
2022-10-02T11:14:55.207Z,1.08
2022-10-02T11:18:12.724Z,0.55
2022-10-02T11:20:56.564Z,0.75
2022-10-02T11:23:38.136Z,0.73
2022-10-02T11:26:27.506Z,0.57
2022-10-02T11:29:34.383Z,1.35
2022-10-02T11:32:28.240Z,1.00
2022-10-02T11:35:03.058Z,1.20
2022-10-02T11:37:40.244Z,0.73
2022-10-02T11:40:26.676Z,1.08
2022-10-02T11:43:17.370Z,0.25
2022-10-02T11:46:04.076Z,0.60
2022-10-02T11:48:44.847Z,0.40
2022-10-02T11:51:28.291Z,0.57
2022-10-02T11:54:09.703Z,0.70
2022-10-02T11:57:00.550Z,0.97
2022-10-02T12:00:05.904Z,0.70
2022-10-02T12:02:44.287Z,0.80
2022-10-02T12:05:43.020Z,0.70
2022-10-02T12:08:44.442Z,2.00
2022-10-02T12:11:25.832Z,0.80
2022-10-02T12:14:14.020Z,0.80
2022-10-02T12:16:52.441Z,1.00
2022-10-02T12:19:24.619Z,0.65
2022-10-02T12:22:36.175Z,0.80
2022-10-02T12:26:01.468Z,0.82
2022-10-02T12:28:36.252Z,0.82
2022-10-02T12:31:25.624Z,1.15
2022-10-02T12:34:01.226Z,1.85
2022-10-02T12:36:48.985Z,2.45
2022-10-02T12:39:41.570Z,1.30
2022-10-02T12:42:40.987Z,1.20
2022-10-02T12:45:35.042Z,1.25
2022-10-02T12:48:07.196Z,1.00
2022-10-02T12:51:05.875Z,0.98
2022-10-02T12:53:54.444Z,0.60
2022-10-02T12:56:45.674Z,0.82
2022-10-02T12:59:41.808Z,0.73
2022-10-02T13:02:17.528Z,0.43
2022-10-02T13:05:10.081Z,0.60
2022-10-02T13:08:15.913Z,0.70
2022-10-02T13:11:00.637Z,1.23
2022-10-02T13:13:51.440Z,2.17
2022-10-02T13:16:21.812Z,2.13
2022-10-02T13:19:19.798Z,1.10
2022-10-02T13:21:59.107Z,2.60
2022-10-02T13:24:49.929Z,2.30
2022-10-02T13:27:46.281Z,1.23
2022-10-02T13:30:23.967Z,0.80
2022-10-02T13:33:46.560Z,0.80
2022-10-02T13:36:35.286Z,0.82
2022-10-02T13:39:26.855Z,0.80
2022-10-02T13:42:17.981Z,1.07
2022-10-02T13:45:22.296Z,0.63
2022-10-02T13:48:03.770Z,1.23
2022-10-02T13:50:46.695Z,1.00
2022-10-02T13:53:25.002Z,1.00
2022-10-02T13:56:02.829Z,1.13
2022-10-02T13:58:29.098Z,1.23
2022-10-02T14:01:01.450Z,1.63
2022-10-02T14:03:55.918Z,1.30
2022-10-02T14:06:29.119Z,2.00
2022-10-02T14:09:20.457Z,2.13
2022-10-02T14:12:14.859Z,1.35
2022-10-02T14:14:56.575Z,1.45
2022-10-02T14:17:25.991Z,1.80
2022-10-02T14:19:52.620Z,2.03
2022-10-02T14:22:37.690Z,24.33
2022-10-02T14:25:34.870Z,36.58
2022-10-02T14:28:33.939Z,17.73
2022-10-02T14:31:26.300Z,6.60
2022-10-02T14:34:02.833Z,3.05
2022-10-02T14:36:38.288Z,1.50
2022-10-02T14:39:10.433Z,1.77
2022-10-02T14:42:07.168Z,9.07
2022-10-02T14:44:52.345Z,17.13
2022-10-02T14:47:51.429Z,11.00
2022-10-02T14:50:34.763Z,5.38
2022-10-02T14:53:19.775Z,2.70
2022-10-02T14:55:49.074Z,1.92
2022-10-02T14:58:15.444Z,1.60
2022-10-02T15:00:51.027Z,2.47
2022-10-02T15:03:55.337Z,1.80
2022-10-02T15:06:52.600Z,1.60
2022-10-02T15:09:28.928Z,1.50
2022-10-02T15:12:04.486Z,1.58
2022-10-02T15:14:34.563Z,1.45
2022-10-02T15:17:33.564Z,1.05
2022-10-02T15:20:24.263Z,1.42
2022-10-02T15:23:07.499Z,4.53
2022-10-02T15:26:00.344Z,2.47
2022-10-02T15:28:37.582Z,2.60
2022-10-02T15:31:44.210Z,2.67
2022-10-02T15:34:30.488Z,2.15
2022-10-02T15:37:18.027Z,2.05
2022-10-02T15:40:02.852Z,1.75
2022-10-02T15:42:55.028Z,2.17
2022-10-02T15:45:36.343Z,2.00
2022-10-02T15:48:36.887Z,2.30
2022-10-02T15:51:19.354Z,2.45
2022-10-02T15:54:10.393Z,2.47
2022-10-02T15:57:00.739Z,2.90
2022-10-02T15:59:55.792Z,2.80
2022-10-02T16:02:53.356Z,2.75
2022-10-02T16:05:31.992Z,3.17
2022-10-02T16:08:27.861Z,3.55
2022-10-02T16:10:57.080Z,4.65
2022-10-02T16:13:23.521Z,5.80
2022-10-02T16:15:52.330Z,6.15
2022-10-02T16:18:37.717Z,5.70
2022-10-02T16:21:26.269Z,7.10
2022-10-02T16:24:20.706Z,4.95
2022-10-02T16:27:19.243Z,4.43
2022-10-02T16:30:08.266Z,4.25
2022-10-02T16:32:46.879Z,3.45
2022-10-02T16:35:32.084Z,3.20
2022-10-02T16:38:24.647Z,3.75
2022-10-02T16:41:13.573Z,4.35
2022-10-02T16:43:48.957Z,3.67
2022-10-02T16:46:24.673Z,4.50
2022-10-02T16:49:01.634Z,3.70
2022-10-02T16:52:01.476Z,2.90
2022-10-02T16:54:37.854Z,3.25
2022-10-02T16:57:27.916Z,4.38
2022-10-02T17:00:02.459Z,5.25
2022-10-02T17:02:52.703Z,4.70
2022-10-02T17:05:36.717Z,5.95
2022-10-02T17:08:28.600Z,6.65
2022-10-02T17:11:08.745Z,6.15
2022-10-02T17:13:54.168Z,5.95
2022-10-02T17:16:27.583Z,5.50
2022-10-02T17:18:59.934Z,5.68
2022-10-02T17:21:31.996Z,4.50
2022-10-02T17:26:56.422Z,3.47
2022-10-02T17:29:29.352Z,4.00
2022-10-02T17:31:58.825Z,4.40
2022-10-02T17:34:29.620Z,6.93
2022-10-02T17:37:08.442Z,4.45
2022-10-02T17:39:59.025Z,6.40
2022-10-02T17:42:32.677Z,5.53
2022-10-02T17:45:17.987Z,7.50
2022-10-02T17:47:55.310Z,4.88
2022-10-02T17:50:30.901Z,8.95
2022-10-02T17:54:03.369Z,5.00
2022-10-02T17:57:15.259Z,7.47
2022-10-02T18:00:09.685Z,8.02
2022-10-02T18:02:56.398Z,7.68
2022-10-02T18:05:49.721Z,8.43
2022-10-02T18:08:54.358Z,6.97
2022-10-02T18:11:54.313Z,9.48
2022-10-02T18:14:39.087Z,9.63
2022-10-02T18:17:52.226Z,7.63
2022-10-02T18:20:37.094Z,5.55
2022-10-02T18:23:22.665Z,5.53
2022-10-02T18:26:05.147Z,4.88
2022-10-02T18:28:55.470Z,3.95
2022-10-02T18:31:56.850Z,5.20
2022-10-02T18:34:29.914Z,5.88
2022-10-02T18:37:14.312Z,4.38
2022-10-02T18:39:52.034Z,5.43
2022-10-02T18:42:40.833Z,7.68
2022-10-02T18:45:27.441Z,8.50
2022-10-02T18:48:19.771Z,11.90
2022-10-02T18:54:05.904Z,12.38
2022-10-02T18:56:51.331Z,12.35
2022-10-02T18:59:26.468Z,12.40
2022-10-02T19:02:05.513Z,12.00
2022-10-02T19:04:53.786Z,7.25
2022-10-02T19:08:08.571Z,11.27
2022-10-02T19:10:34.839Z,7.03
2022-10-02T19:13:18.273Z,8.50
2022-10-02T19:15:46.729Z,6.47
2022-10-02T19:18:21.758Z,5.80
2022-10-02T19:20:53.649Z,9.60
2022-10-02T19:23:23.005Z,4.88
2022-10-02T19:25:50.810Z,7.30
2022-10-02T19:28:23.236Z,10.18
2022-10-02T19:30:53.087Z,7.30
2022-10-02T19:33:32.187Z,6.55
2022-10-02T19:36:10.775Z,10.50
2022-10-02T19:38:39.880Z,6.60
2022-10-02T19:41:09.841Z,9.90
2022-10-02T19:43:46.510Z,10.27
2022-10-02T19:46:15.611Z,12.00
2022-10-02T19:48:45.016Z,12.32
2022-10-02T19:51:21.232Z,9.27
2022-10-02T19:53:54.496Z,12.30
2022-10-02T19:56:30.181Z,12.30
2022-10-02T19:59:05.697Z,11.52
2022-10-02T20:01:57.680Z,12.07
2022-10-02T20:04:33.230Z,12.13
2022-10-02T20:07:00.236Z,11.52
2022-10-02T20:09:55.293Z,12.07
2022-10-02T20:12:31.163Z,11.60
2022-10-02T20:15:15.594Z,10.52
2022-10-02T20:17:49.468Z,11.52
2022-10-02T20:20:20.719Z,9.88
2022-10-02T20:22:48.147Z,10.40
2022-10-02T20:25:28.309Z,9.80
2022-10-02T20:28:04.184Z,10.32
2022-10-02T20:30:41.673Z,11.05
2022-10-02T20:33:34.331Z,10.15
2022-10-02T20:36:09.164Z,10.02
2022-10-02T20:38:40.738Z,9.40
2022-10-02T20:41:30.841Z,9.88
2022-10-02T20:44:04.261Z,12.35
2022-10-02T20:46:33.399Z,23.27
2022-10-02T20:49:28.421Z,20.90
2022-10-02T20:52:06.504Z,19.35
2022-10-02T20:54:58.133Z,16.58
2022-10-02T20:58:02.048Z,11.43
2022-10-02T21:00:53.314Z,11.50
2022-10-02T21:03:35.537Z,12.07
2022-10-02T21:06:04.683Z,13.57
2022-10-02T21:09:08.595Z,10.50
2022-10-02T21:12:13.303Z,13.18
2022-10-02T21:14:54.623Z,10.18
2022-10-02T21:17:42.748Z,10.13
2022-10-02T21:20:50.106Z,12.27
2022-10-02T21:23:50.481Z,9.57
2022-10-02T21:26:27.363Z,7.95
2022-10-02T21:29:24.046Z,8.32
2022-10-02T21:32:10.169Z,6.25
2022-10-02T21:34:54.386Z,7.30
2022-10-02T21:37:36.226Z,6.45
2022-10-02T21:40:15.000Z,7.88
2022-10-02T21:43:00.678Z,8.15
2022-10-02T21:45:51.147Z,7.47
2022-10-02T21:48:29.548Z,14.63
2022-10-02T21:51:33.278Z,19.55
2022-10-02T21:54:14.473Z,10.32
2022-10-02T21:56:59.597Z,10.23
2022-10-02T22:00:11.036Z,10.70
2022-10-02T22:02:53.186Z,7.88
2022-10-02T22:05:41.256Z,9.60
2022-10-02T22:08:35.022Z,6.50
2022-10-02T22:11:09.603Z,7.68
2022-10-02T22:13:40.787Z,6.63
2022-10-02T22:16:20.255Z,6.20
2022-10-02T22:19:17.695Z,6.63
2022-10-02T22:22:01.694Z,4.63
2022-10-02T22:24:30.193Z,4.88
2022-10-02T22:27:06.958Z,3.75
2022-10-02T22:30:03.555Z,4.85
2022-10-02T22:32:59.688Z,4.47
2022-10-02T22:35:57.902Z,3.80
2022-10-02T22:38:33.275Z,5.05
2022-10-02T22:41:22.499Z,4.47
2022-10-02T22:43:57.321Z,3.67
2022-10-02T22:46:42.018Z,3.75
2022-10-02T22:49:27.335Z,3.30
2022-10-02T22:52:09.014Z,3.58
2022-10-02T22:54:45.719Z,4.53
2022-10-02T22:57:20.191Z,4.25
2022-10-02T22:59:56.378Z,4.28
2022-10-02T23:02:34.072Z,3.95
2022-10-02T23:05:14.034Z,4.72
2022-10-02T23:07:49.731Z,4.72
2022-10-02T23:10:25.015Z,3.30
2022-10-02T23:13:09.664Z,4.22
2022-10-02T23:15:49.312Z,3.88
2022-10-02T23:18:36.937Z,4.03
2022-10-02T23:21:33.537Z,4.53
2022-10-02T23:24:28.999Z,4.15
2022-10-02T23:26:55.487Z,4.72
2022-10-02T23:29:47.769Z,5.25
2022-10-02T23:32:31.530Z,4.22
2022-10-02T23:35:19.860Z,4.53
2022-10-02T23:38:01.698Z,4.05
2022-10-02T23:40:51.255Z,3.40
2022-10-02T23:43:36.198Z,4.85
2022-10-02T23:46:09.408Z,4.07
2022-10-02T23:48:40.738Z,4.65
2022-10-02T23:51:16.423Z,3.87
2022-10-02T23:54:02.987Z,3.67
2022-10-02T23:56:35.496Z,4.30
2022-10-02T23:59:27.997Z,5.90
